LFOP

Rouen Airport

Airport
ICAO code
LFOP
IATA Code
URO
Summary
ICAO Region
EUR
ICAO Territory
Location

, Haute-Normandie

Serving
Rouen
Elevation
512 ft
Coordinates
49° 23' 3" N , 1° 10' 29" E
Metar
Observation
LFOP 030230Z AUTO 04012KT 6000 OVC011 02/M01 Q1018
Station
Rouen
Date/Time
2022-12-03 02:30:00
Wind direction
40°
Wind speed
12 kts
Lowest cloud amount
overcast
Temperature
2°C
Dew point
-1°C
Humidity
80%
QNH
1018 hPa
Weather condition
n/a

Runways

Designator Length Width Surface Rops
5/23 0 0 UNK No/No
4/22 1700 45 ASP Yes/Yes

Airport map

Aerial View

SKYbrary Partners:

Safety knowledge contributed by: